Time;durP1;ratioP1;P1;durP2;ratioP2;P2;SDS_P1;SDS_P2;PMS_P1;PMS_P2;Temp;Humidity;BMP_temperature;BMP_pressure;BME280_temperature;BME280_humidity;BME280_pressure;Samples;Min_cycle;Max_cycle;Signal;HPM_P1;HPM_P2
2021/01/07 00:01:30;;;;;;;11.47;9.10;;;6.40;95.00;;;;;;5053637;28;20339;-74
2021/01/07 00:03:56;;;;;;;10.90;9.00;;;6.40;94.90;;;;;;5053489;28;20190;-74
2021/01/07 00:06:21;;;;;;;10.57;8.30;;;6.40;94.80;;;;;;5055129;28;20170;-73
2021/01/07 00:08:47;;;;;;;8.90;7.70;;;6.30;94.80;;;;;;5052313;28;20186;-73
2021/01/07 00:11:13;;;;;;;10.33;8.30;;;6.30;94.90;;;;;;5051295;28;20175;-73
2021/01/07 00:13:38;;;;;;;9.20;7.77;;;6.30;95.10;;;;;;5053507;28;20213;-75
2021/01/07 00:16:05;;;;;;;9.63;8.73;;;6.20;95.20;;;;;;5052503;28;20283;-75
2021/01/07 00:18:31;;;;;;;9.20;8.02;;;6.30;95.30;;;;;;5051919;28;20661;-72
2021/01/07 00:20:57;;;;;;;11.38;9.45;;;6.20;95.20;;;;;;5053493;28;20186;-73
2021/01/07 00:23:23;;;;;;;10.87;9.30;;;6.30;95.30;;;;;;5052838;28;20236;-73
2021/01/07 00:25:50;;;;;;;10.93;9.70;;;6.20;95.30;;;;;;5052415;28;20177;-73
2021/01/07 00:28:17;;;;;;;11.32;9.57;;;6.20;95.40;;;;;;5052797;28;20253;-73
2021/01/07 00:30:44;;;;;;;10.47;9.13;;;6.30;95.40;;;;;;5053608;28;20264;-72
2021/01/07 00:33:11;;;;;;;11.80;9.60;;;6.30;95.30;;;;;;5051884;28;20459;-73
2021/01/07 00:35:37;;;;;;;12.80;9.47;;;6.30;95.30;;;;;;5052578;28;20463;-73
2021/01/07 00:38:04;;;;;;;10.50;9.03;;;6.30;95.40;;;;;;5052801;28;20459;-75
2021/01/07 00:40:31;;;;;;;11.83;8.77;;;6.30;95.30;;;;;;5053067;28;20425;-73
2021/01/07 00:42:57;;;;;;;10.60;9.13;;;6.30;95.40;;;;;;5053067;28;20428;-73
2021/01/07 00:45:23;;;;;;;11.60;9.13;;;6.30;95.30;;;;;;5052483;28;20170;-73
2021/01/07 00:47:49;;;;;;;9.97;8.93;;;6.40;95.40;;;;;;5053157;28;20902;-73
2021/01/07 00:50:14;;;;;;;11.03;9.10;;;6.40;95.30;;;;;;5051847;28;20277;-73
2021/01/07 00:52:41;;;;;;;11.17;9.13;;;6.30;95.20;;;;;;5052468;28;20198;-73
2021/01/07 00:55:08;;;;;;;12.98;9.18;;;6.30;95.10;;;;;;5052504;28;20180;-76
2021/01/07 00:57:33;;;;;;;12.65;9.48;;;6.30;95.20;;;;;;5052561;28;20585;-73
2021/01/07 00:59:59;;;;;;;14.63;10.40;;;6.30;95.30;;;;;;5051750;28;20176;-73
2021/01/07 01:02:25;;;;;;;11.57;10.07;;;6.30;95.30;;;;;;5052400;28;20274;-73
2021/01/07 01:04:51;;;;;;;13.67;10.07;;;6.30;95.40;;;;;;5051754;28;20549;-73
2021/01/07 01:07:16;;;;;;;15.70;11.90;;;6.20;95.50;;;;;;5052034;28;20526;-73
2021/01/07 01:09:42;;;;;;;15.47;11.20;;;6.20;95.60;;;;;;5052692;28;20170;-73
2021/01/07 01:12:08;;;;;;;17.17;12.03;;;6.30;95.60;;;;;;5051665;28;20546;-74
2021/01/07 01:14:34;;;;;;;18.00;12.97;;;6.20;95.60;;;;;;5052738;28;20259;-73
2021/01/07 01:17:00;;;;;;;14.30;11.97;;;6.20;95.60;;;;;;5085063;28;20484;-73
2021/01/07 01:19:25;;;;;;;16.50;12.23;;;6.20;95.80;;;;;;5051246;28;20170;-73
2021/01/07 01:21:52;;;;;;;16.93;12.40;;;6.30;95.80;;;;;;5051353;28;20204;-73
2021/01/07 01:24:18;;;;;;;17.35;13.05;;;6.20;95.80;;;;;;5051452;28;20276;-73
2021/01/07 01:26:44;;;;;;;17.83;12.75;;;6.20;95.80;;;;;;5052540;28;20209;-73
2021/01/07 01:29:09;;;;;;;18.83;12.13;;;6.20;95.80;;;;;;5051821;28;20209;-73
2021/01/07 01:31:41;;;;;;;17.40;11.90;;;6.20;95.90;;;;;;5052557;28;20224;-73
2021/01/07 01:34:07;;;;;;;18.35;12.55;;;6.30;95.80;;;;;;5051816;28;20210;-75
2021/01/07 01:36:33;;;;;;;19.88;12.48;;;6.20;95.80;;;;;;5050915;28;20229;-73
2021/01/07 01:38:59;;;;;;;17.17;11.37;;;6.20;95.80;;;;;;5052234;28;20689;-73
2021/01/07 01:41:25;;;;;;;14.53;11.00;;;6.20;95.80;;;;;;5051523;28;20173;-73
2021/01/07 01:43:50;;;;;;;12.73;10.13;;;6.20;95.90;;;;;;5052399;28;20185;-73
2021/01/07 01:46:16;;;;;;;14.20;9.43;;;6.20;95.80;;;;;;5051409;28;20174;-73
2021/01/07 01:48:43;;;;;;;12.27;10.17;;;6.20;95.80;;;;;;5050831;28;20177;-73
2021/01/07 01:51:09;;;;;;;11.02;9.63;;;6.10;95.90;;;;;;5051314;28;20262;-75
2021/01/07 01:53:37;;;;;;;10.73;9.33;;;6.10;95.90;;;;;;5053310;28;20363;-73
2021/01/07 01:56:05;;;;;;;10.32;8.45;;;6.20;95.80;;;;;;5061350;28;20379;-73
2021/01/07 01:58:35;;;;;;;14.20;9.05;;;6.10;95.70;;;;;;5059820;28;20174;-73
2021/01/07 02:01:00;;;;;;;9.10;7.80;;;6.10;95.70;;;;;;5060820;28;20177;-73
2021/01/07 02:03:26;;;;;;;11.83;9.03;;;6.10;95.70;;;;;;5060452;28;20926;-75
2021/01/07 02:05:52;;;;;;;11.00;8.47;;;6.20;95.90;;;;;;5058585;28;20525;-75
2021/01/07 02:08:19;;;;;;;12.40;9.00;;;6.10;95.80;;;;;;5060502;28;20208;-73
2021/01/07 02:10:46;;;;;;;11.60;8.75;;;6.10;95.60;;;;;;5061158;28;20586;-73
2021/01/07 02:13:12;;;;;;;10.38;8.02;;;6.10;95.60;;;;;;5058293;28;20293;-73
2021/01/07 02:15:41;;;;;;;12.32;7.53;;;6.10;95.70;;;;;;5061926;28;20173;-73
2021/01/07 02:18:08;;;;;;;11.85;7.75;;;6.10;95.60;;;;;;5059382;28;20267;-74
2021/01/07 02:20:34;;;;;;;9.73;7.72;;;6.10;95.50;;;;;;5061369;28;20185;-73
2021/01/07 02:23:00;;;;;;;10.25;7.45;;;6.20;95.60;;;;;;5060453;28;20182;-73
2021/01/07 02:25:26;;;;;;;8.37;7.47;;;6.10;95.60;;;;;;5058999;28;20184;-73
2021/01/07 02:27:52;;;;;;;9.43;8.13;;;6.20;95.80;;;;;;5061294;28;20177;-73
2021/01/07 02:30:18;;;;;;;8.77;7.97;;;6.10;95.60;;;;;;5059237;28;20412;-73
2021/01/07 02:32:45;;;;;;;12.43;8.13;;;6.10;95.60;;;;;;5060029;28;20684;-73
2021/01/07 02:35:11;;;;;;;11.55;8.57;;;6.10;95.60;;;;;;5059598;28;20221;-73
2021/01/07 02:37:40;;;;;;;11.32;8.30;;;6.10;95.50;;;;;;5061368;28;20178;-73
2021/01/07 02:40:08;;;;;;;12.05;8.43;;;6.10;95.50;;;;;;5059973;28;20626;-75
2021/01/07 02:42:34;;;;;;;12.77;9.20;;;6.10;95.50;;;;;;5060900;28;20319;-73
2021/01/07 02:45:00;;;;;;;11.80;9.30;;;6.10;95.60;;;;;;5058838;28;20185;-73
2021/01/07 02:47:25;;;;;;;13.20;9.33;;;6.10;95.60;;;;;;5058078;28;20415;-73
2021/01/07 02:49:51;;;;;;;14.43;10.13;;;6.10;95.50;;;;;;5059942;28;20181;-73
2021/01/07 02:52:17;;;;;;;16.00;10.60;;;6.10;95.50;;;;;;5060672;28;20173;-72
2021/01/07 02:54:43;;;;;;;14.00;10.50;;;6.10;95.60;;;;;;5060423;28;20399;-73
2021/01/07 02:57:09;;;;;;;14.00;10.13;;;6.10;95.70;;;;;;5057473;28;20408;-75
2021/01/07 02:59:35;;;;;;;17.00;11.20;;;6.10;95.70;;;;;;5061014;28;20185;-72
2021/01/07 03:02:00;;;;;;;17.70;11.40;;;6.20;95.60;;;;;;5060704;28;20201;-72
2021/01/07 03:04:26;;;;;;;14.80;10.20;;;6.10;95.50;;;;;;5059410;28;20264;-72
2021/01/07 03:06:52;;;;;;;17.40;12.70;;;6.10;95.60;;;;;;5063647;28;20181;-73
2021/01/07 03:09:17;;;;;;;15.30;10.97;;;6.20;95.60;;;;;;5058869;28;20178;-73
2021/01/07 03:11:43;;;;;;;14.67;10.77;;;6.20;95.60;;;;;;5062844;28;20178;-73
2021/01/07 03:14:09;;;;;;;19.30;13.03;;;6.20;95.50;;;;;;5060561;28;20204;-75
2021/01/07 03:16:35;;;;;;;17.97;11.53;;;6.20;95.60;;;;;;5063030;28;20227;-73
2021/01/07 03:19:00;;;;;;;17.80;12.40;;;6.20;95.50;;;;;;5065576;28;20185;-73
2021/01/07 03:21:26;;;;;;;18.67;12.03;;;6.30;95.50;;;;;;5056096;28;20415;-73
2021/01/07 03:23:52;;;;;;;15.25;11.18;;;6.30;95.50;;;;;;5054814;28;20178;-72
2021/01/07 03:26:18;;;;;;;18.03;11.80;;;6.30;95.50;;;;;;5054070;28;20175;-73
2021/01/07 03:28:44;;;;;;;15.60;10.90;;;6.30;95.40;;;;;;5054793;28;20320;-72
2021/01/07 03:31:10;;;;;;;14.50;11.27;;;6.30;95.50;;;;;;5054283;28;20462;-77
2021/01/07 03:33:36;;;;;;;18.23;12.35;;;6.30;95.50;;;;;;5054388;28;20195;-75
2021/01/07 03:36:03;;;;;;;18.80;10.47;;;6.30;95.50;;;;;;5036461;28;20255;-75
2021/01/07 03:38:28;;;;;;;14.85;11.35;;;6.40;95.40;;;;;;5053856;28;20429;-75
2021/01/07 03:40:54;;;;;;;18.77;12.20;;;6.40;95.40;;;;;;5054241;28;20196;-75
2021/01/07 03:43:20;;;;;;;15.93;10.30;;;6.30;95.80;;;;;;5053810;28;20178;-75
2021/01/07 03:45:46;;;;;;;15.87;11.13;;;6.30;95.50;;;;;;5054538;28;20637;-75
2021/01/07 03:48:12;;;;;;;13.30;11.00;;;6.30;95.40;;;;;;5053699;28;20477;-77
2021/01/07 03:50:37;;;;;;;16.30;10.43;;;6.40;95.40;;;;;;5054143;28;20614;-76
2021/01/07 03:53:03;;;;;;;14.33;10.30;;;6.40;95.40;;;;;;5053008;28;20201;-75
2021/01/07 03:55:29;;;;;;;16.30;10.13;;;6.40;95.40;;;;;;5053695;28;20174;-75
2021/01/07 03:57:55;;;;;;;14.00;11.53;;;6.40;95.30;;;;;;5054317;28;20185;-75
2021/01/07 04:00:21;;;;;;;15.40;11.80;;;6.40;95.30;;;;;;5053371;28;20379;-75
2021/01/07 04:02:46;;;;;;;16.07;13.13;;;6.30;95.60;;;;;;5052770;28;20178;-75
2021/01/07 04:05:13;;;;;;;16.60;12.77;;;6.30;95.50;;;;;;5052274;28;20912;-77
2021/01/07 04:07:39;;;;;;;18.00;12.40;;;6.30;95.50;;;;;;5052853;28;20170;-76
2021/01/07 04:10:06;;;;;;;17.20;12.53;;;6.30;95.40;;;;;;5054076;28;20182;-75
2021/01/07 04:12:32;;;;;;;20.73;13.40;;;6.30;95.30;;;;;;5084770;28;21059;-75
2021/01/07 04:14:58;;;;;;;16.13;12.80;;;6.40;95.50;;;;;;5052732;28;20171;-75
2021/01/07 04:17:24;;;;;;;18.57;12.97;;;6.40;95.50;;;;;;5051927;28;20257;-76
2021/01/07 04:19:50;;;;;;;19.53;13.20;;;6.40;95.50;;;;;;5085909;28;20394;-75
2021/01/07 04:22:15;;;;;;;16.93;12.70;;;6.40;95.30;;;;;;5052986;28;20185;-76
2021/01/07 04:24:41;;;;;;;20.80;13.60;;;6.40;95.20;;;;;;5053746;28;20186;-75
2021/01/07 04:27:07;;;;;;;19.20;12.37;;;6.40;95.20;;;;;;5053910;28;20232;-75
2021/01/07 04:29:32;;;;;;;15.80;13.10;;;6.40;95.30;;;;;;5052921;28;20257;-75
2021/01/07 04:31:58;;;;;;;20.87;14.60;;;6.40;95.30;;;;;;5053244;28;20171;-75
2021/01/07 04:34:24;;;;;;;20.40;14.17;;;6.50;95.50;;;;;;5068118;28;20610;-76
2021/01/07 04:36:49;;;;;;;18.40;13.60;;;6.40;95.30;;;;;;5053775;28;20226;-75
2021/01/07 04:39:16;;;;;;;19.83;14.30;;;6.40;95.30;;;;;;5084751;28;20557;-76
2021/01/07 04:41:42;;;;;;;21.58;15.73;;;6.40;95.40;;;;;;5053112;28;20175;-75
2021/01/07 04:44:08;;;;;;;25.23;16.10;;;6.40;95.80;;;;;;5053237;28;20178;-75
2021/01/07 04:46:34;;;;;;;20.40;16.40;;;6.40;95.40;;;;;;5050945;28;20249;-75
2021/01/07 04:49:01;;;;;;;20.00;16.57;;;6.40;95.70;;;;;;5053365;28;20455;-75
2021/01/07 04:51:26;;;;;;;21.03;15.97;;;6.40;95.40;;;;;;5052246;28;20190;-75
2021/01/07 04:53:52;;;;;;;21.57;15.60;;;6.40;95.40;;;;;;5053016;28;20787;-75
2021/01/07 04:56:18;;;;;;;19.70;15.13;;;6.40;95.50;;;;;;5052436;28;20606;-75
2021/01/07 04:58:44;;;;;;;22.33;17.07;;;6.40;95.70;;;;;;5053178;28;20856;-75
2021/01/07 05:01:10;;;;;;;20.63;16.27;;;6.40;95.70;;;;;;5051580;28;20607;-75
2021/01/07 05:03:35;;;;;;;22.33;17.70;;;6.40;95.60;;;;;;5052250;28;20616;-75
2021/01/07 05:06:01;;;;;;;22.50;17.40;;;6.30;95.70;;;;;;5052647;28;20388;-75
2021/01/07 05:08:28;;;;;;;24.93;20.83;;;6.30;95.80;;;;;;5084572;28;20653;-73
2021/01/07 05:10:54;;;;;;;27.85;17.80;;;6.30;96.10;;;;;;5052904;28;20517;-73
2021/01/07 05:13:21;;;;;;;24.90;19.80;;;6.30;96.20;;;;;;5084144;28;20204;-73
2021/01/07 05:15:47;;;;;;;25.55;17.13;;;6.30;96.40;;;;;;5051715;28;20507;-73
2021/01/07 05:18:13;;;;;;;25.27;18.53;;;6.30;96.40;;;;;;5052693;28;20274;-75
2021/01/07 05:20:40;;;;;;;26.60;17.70;;;6.30;96.50;;;;;;5051936;28;20182;-74
2021/01/07 05:23:07;;;;;;;26.88;17.95;;;6.30;96.60;;;;;;5052734;28;20428;-73
2021/01/07 05:25:33;;;;;;;24.10;17.83;;;6.30;96.50;;;;;;5051417;28;20500;-74
2021/01/07 05:28:04;;;;;;;27.33;20.70;;;6.30;96.60;;;;;;5051761;28;20193;-74
2021/01/07 05:30:31;;;;;;;26.58;19.88;;;6.30;96.40;;;;;;5051679;28;20404;-74
2021/01/07 05:33:01;;;;;;;27.55;19.25;;;6.30;96.50;;;;;;5052389;28;20220;-74
2021/01/07 05:35:27;;;;;;;24.27;18.33;;;6.20;96.40;;;;;;5051655;28;20294;-74
2021/01/07 05:37:53;;;;;;;27.05;19.77;;;6.20;96.60;;;;;;5052629;28;20179;-74
2021/01/07 05:40:21;;;;;;;26.27;19.60;;;6.30;96.50;;;;;;5051385;28;20175;-75
2021/01/07 05:42:47;;;;;;;26.30;19.87;;;6.30;96.50;;;;;;5052343;28;20176;-74
2021/01/07 05:45:15;;;;;;;27.33;21.20;;;6.30;96.50;;;;;;5051859;28;20421;-74
2021/01/07 05:47:49;;;;;;;30.38;19.45;;;6.30;96.40;;;;;;5051758;28;20189;-74
2021/01/07 05:50:17;;;;;;;26.57;18.07;;;6.30;96.40;;;;;;5052124;28;20193;-75
2021/01/07 05:52:44;;;;;;;27.77;19.27;;;6.30;96.50;;;;;;5050674;28;20457;-74
2021/01/07 05:55:12;;;;;;;28.83;20.05;;;6.30;96.60;;;;;;5052416;28;20174;-74
2021/01/07 05:57:39;;;;;;;24.67;18.17;;;6.30;96.60;;;;;;5051383;28;20824;-74
2021/01/07 06:00:09;;;;;;;26.42;20.17;;;6.30;96.50;;;;;;5052204;28;20174;-74
2021/01/07 06:02:37;;;;;;;27.37;19.10;;;6.30;96.40;;;;;;5051410;28;20265;-74
2021/01/07 06:05:08;;;;;;;27.77;18.33;;;6.30;96.50;;;;;;5050666;28;20457;-74
2021/01/07 06:07:35;;;;;;;24.77;19.63;;;6.30;96.40;;;;;;5048209;28;20716;-74
2021/01/07 06:10:02;;;;;;;26.20;19.25;;;6.30;96.40;;;;;;5052104;28;20507;-74
2021/01/07 06:12:28;;;;;;;25.10;17.38;;;6.30;96.50;;;;;;5051195;28;20175;-74
2021/01/07 06:14:58;;;;;;;25.37;19.37;;;6.30;96.60;;;;;;5051678;28;20668;-74
2021/01/07 06:17:24;;;;;;;24.83;19.13;;;6.30;96.40;;;;;;5051169;28;20384;-74
2021/01/07 06:19:53;;;;;;;23.52;18.00;;;6.30;96.20;;;;;;5051078;28;20178;-75
2021/01/07 06:22:21;;;;;;;23.77;17.33;;;6.30;96.20;;;;;;5049853;28;20473;-75
2021/01/07 06:24:55;;;;;;;28.25;19.55;;;6.30;96.20;;;;;;5051472;28;20403;-74
2021/01/07 06:27:26;;;;;;;23.98;17.75;;;6.30;96.30;;;;;;5046719;28;20579;-76
2021/01/07 06:30:07;;;;;;;25.10;18.00;;;6.30;96.00;;;;;;5051298;28;20269;-74
2021/01/07 06:32:40;;;;;;;21.42;17.20;;;6.30;95.90;;;;;;5051225;28;20178;-74
2021/01/07 06:35:13;;;;;;;23.50;14.70;;;6.30;95.90;;;;;;5051807;28;20248;-74
2021/01/07 06:37:41;;;;;;;24.25;16.52;;;6.30;96.20;;;;;;5051105;28;20462;-74
2021/01/07 06:40:09;;;;;;;23.13;15.57;;;6.20;96.20;;;;;;5049186;28;20189;-74
2021/01/07 06:42:37;;;;;;;20.13;15.63;;;6.30;96.20;;;;;;5055309;28;20265;-74
2021/01/07 06:45:07;;;;;;;18.23;14.90;;;6.30;96.10;;;;;;5055666;28;20419;-74
2021/01/07 06:47:33;;;;;;;19.00;13.93;;;6.30;96.00;;;;;;5054745;28;20376;-74
2021/01/07 06:50:00;;;;;;;21.13;15.47;;;6.30;95.90;;;;;;5054618;28;20253;-73
2021/01/07 06:52:27;;;;;;;19.17;15.23;;;6.40;95.90;;;;;;5054649;28;20405;-72
2021/01/07 06:54:54;;;;;;;19.90;14.37;;;6.30;95.80;;;;;;5054822;28;20816;-72
2021/01/07 06:57:20;;;;;;;18.20;12.50;;;6.30;95.80;;;;;;5053940;28;20403;-73
2021/01/07 06:59:59;;;;;;;18.50;13.35;;;6.30;95.80;;;;;;5054579;28;20421;-72
2021/01/07 07:02:25;;;;;;;19.30;14.33;;;6.30;95.80;;;;;;5048404;28;20174;-72
2021/01/07 07:05:04;;;;;;;14.88;12.43;;;6.30;95.60;;;;;;5036757;28;20758;-72
2021/01/07 07:07:39;;;;;;;18.80;13.90;;;6.40;95.70;;;;;;5081995;28;20171;-72
2021/01/07 07:10:22;;;;;;;18.33;13.47;;;6.40;95.60;;;;;;5055126;28;20416;-72
2021/01/07 07:12:49;;;;;;;19.20;13.27;;;6.40;95.50;;;;;;5055105;28;20434;-72
2021/01/07 07:15:17;;;;;;;15.93;12.35;;;6.40;95.60;;;;;;5054797;28;20904;-73
2021/01/07 07:17:47;;;;;;;19.83;14.30;;;6.30;95.60;;;;;;5054294;28;20170;-73
2021/01/07 07:20:18;;;;;;;18.00;13.47;;;6.30;95.70;;;;;;5054198;28;20387;-74
2021/01/07 07:22:45;;;;;;;18.45;12.75;;;6.30;95.70;;;;;;5041497;28;20447;-73
2021/01/07 07:25:12;;;;;;;17.33;14.60;;;6.30;95.90;;;;;;5054760;28;20244;-73
2021/01/07 07:27:55;;;;;;;18.88;14.10;;;6.30;95.90;;;;;;5053547;28;20542;-73
2021/01/07 07:30:26;;;;;;;16.83;14.40;;;6.30;96.00;;;;;;5054045;28;20526;-75
2021/01/07 07:32:53;;;;;;;17.53;12.90;;;6.30;95.90;;;;;;5054983;28;20463;-73
2021/01/07 07:35:27;;;;;;;18.57;14.77;;;6.30;96.20;;;;;;5052716;28;20492;-73
2021/01/07 07:37:54;;;;;;;19.95;14.18;;;6.30;96.00;;;;;;5054610;28;20500;-73
2021/01/07 07:40:39;;;;;;;18.30;14.43;;;6.40;96.10;;;;;;5054832;28;20216;-73
2021/01/07 07:43:07;;;;;;;18.63;14.07;;;6.30;96.20;;;;;;5053361;28;20380;-73
2021/01/07 07:45:35;;;;;;;17.30;12.80;;;6.40;96.20;;;;;;5053531;28;20506;-73
2021/01/07 07:48:02;;;;;;;20.20;14.23;;;6.30;96.30;;;;;;5054521;28;20397;-73
2021/01/07 07:50:30;;;;;;;20.65;14.05;;;6.30;96.30;;;;;;5052866;28;20417;-73
2021/01/07 07:53:08;;;;;;;21.38;13.73;;;6.30;96.40;;;;;;5052983;28;20248;-72
2021/01/07 07:55:34;;;;;;;19.55;14.35;;;6.30;96.30;;;;;;5053735;28;20258;-72
2021/01/07 07:58:19;;;;;;;17.75;14.45;;;6.50;96.50;;;;;;5053749;28;20235;-72
2021/01/07 08:00:55;;;;;;;18.85;15.48;;;6.40;96.50;;;;;;5052158;28;20174;-73
2021/01/07 08:03:31;;;;;;;18.67;13.57;;;6.40;96.50;;;;;;5053326;28;20181;-73
2021/01/07 08:05:59;;;;;;;19.02;14.35;;;6.40;96.60;;;;;;5052731;28;20751;-73
2021/01/07 08:08:25;;;;;;;20.05;13.70;;;6.40;96.60;;;;;;5052728;28;20194;-75
2021/01/07 08:10:52;;;;;;;22.43;13.27;;;6.30;96.60;;;;;;5053673;28;20665;-73
2021/01/07 08:13:19;;;;;;;17.30;12.70;;;6.30;96.70;;;;;;5052712;28;20786;-73
2021/01/07 08:15:50;;;;;;;21.13;13.60;;;6.30;96.80;;;;;;5053045;28;20267;-73
2021/01/07 08:18:16;;;;;;;16.75;12.55;;;6.30;97.00;;;;;;5054045;28;20732;-73
2021/01/07 08:20:42;;;;;;;20.58;15.30;;;6.30;97.00;;;;;;5052773;28;20288;-72
2021/01/07 08:23:12;;;;;;;20.30;13.50;;;6.30;97.00;;;;;;5053047;28;20253;-72
2021/01/07 08:25:45;;;;;;;20.63;14.23;;;6.30;97.00;;;;;;5051680;28;20479;-75
2021/01/07 08:28:41;;;;;;;21.67;14.60;;;6.30;97.10;;;;;;5053752;28;20394;-77
2021/01/07 08:31:11;;;;;;;21.33;16.33;;;6.90;99.90;;;;;;5053747;28;20906;-76
2021/01/07 08:33:37;;;;;;;20.30;14.53;;;7.80;99.90;;;;;;5052499;28;20523;-76
2021/01/07 08:36:13;;;;;;;19.57;14.20;;;8.50;99.90;;;;;;5053014;28;20969;-76
2021/01/07 08:38:40;;;;;;;23.03;15.30;;;9.30;99.90;;;;;;5051579;28;20402;-77
2021/01/07 08:41:20;;;;;;;17.70;14.20;;;10.00;97.80;;;;;;5053843;28;20479;-74
2021/01/07 08:43:47;;;;;;;19.43;14.97;;;10.50;95.10;;;;;;5053064;28;20427;-74
2021/01/07 08:46:22;;;;;;;19.27;15.10;;;11.00;96.10;;;;;;5053473;28;20424;-74
2021/01/07 08:49:09;;;;;;;18.43;15.10;;;11.40;92.70;;;;;;5085522;28;20410;-75
2021/01/07 08:51:42;;;;;;;20.43;16.17;;;11.70;91.00;;;;;;5052956;28;20438;-75
2021/01/07 08:54:14;;;;;;;18.77;15.73;;;12.00;89.10;;;;;;5053133;28;20931;-74
2021/01/07 08:56:41;;;;;;;19.40;15.50;;;12.20;91.40;;;;;;5053061;28;20495;-77
2021/01/07 08:59:39;;;;;;;17.80;15.90;;;12.30;86.20;;;;;;5053246;28;20416;-79
2021/01/07 09:02:08;;;;;;;17.27;15.03;;;12.40;86.60;;;;;;5053853;28;20405;-74
2021/01/07 09:04:38;;;;;;;17.73;15.27;;;12.20;80.70;;;;;;5062423;28;20438;-73
2021/01/07 09:07:13;;;;;;;17.80;15.80;;;11.80;78.10;;;;;;5055980;28;20974;-74
2021/01/07 09:09:52;;;;;;;20.43;14.93;;;11.40;78.10;;;;;;5052441;28;20435;-74
2021/01/07 09:12:19;;;;;;;18.53;15.53;;;10.80;79.30;;;;;;5049775;28;20416;-73
2021/01/07 09:14:53;;;;;;;18.70;15.93;;;10.30;80.40;;;;;;5052074;28;20464;-74
2021/01/07 09:17:38;;;;;;;16.60;13.50;;;9.70;83.30;;;;;;5052879;28;20434;-74
2021/01/07 09:20:09;;;;;;;20.50;14.23;;;9.30;84.70;;;;;;5052056;28;20452;-73
2021/01/07 09:22:36;;;;;;;13.40;11.97;;;8.90;86.30;;;;;;5050743;28;20815;-76
2021/01/07 09:25:03;;;;;;;13.53;11.70;;;8.60;87.20;;;;;;5052389;28;20393;-75
2021/01/07 09:27:29;;;;;;;15.77;11.80;;;8.30;88.20;;;;;;5051862;28;20421;-78
2021/01/07 09:29:55;;;;;;;13.53;11.13;;;8.10;89.40;;;;;;5053040;28;20414;-75
2021/01/07 09:32:21;;;;;;;14.30;12.13;;;8.00;90.00;;;;;;5051676;28;20407;-75
2021/01/07 09:34:47;;;;;;;14.67;10.87;;;7.80;90.40;;;;;;5054673;28;21001;-75
2021/01/07 09:37:18;;;;;;;12.43;10.30;;;7.60;90.70;;;;;;5052766;28;20423;-75
2021/01/07 09:39:45;;;;;;;16.03;14.00;;;7.50;91.10;;;;;;5052193;28;20742;-75
2021/01/07 09:42:11;;;;;;;14.60;10.33;;;7.30;91.10;;;;;;5052897;28;20478;-75
2021/01/07 09:44:37;;;;;;;13.97;10.63;;;7.20;91.50;;;;;;5050641;28;21080;-75
2021/01/07 09:47:04;;;;;;;16.63;13.67;;;7.20;92.30;;;;;;5068827;28;20268;-73
2021/01/07 09:49:31;;;;;;;12.83;9.83;;;7.20;92.10;;;;;;5070495;28;20196;-73
2021/01/07 09:51:58;;;;;;;15.73;10.70;;;7.10;92.30;;;;;;5052788;28;20409;-73
2021/01/07 09:54:24;;;;;;;11.60;9.60;;;7.00;92.70;;;;;;5052684;28;20473;-75
2021/01/07 09:56:55;;;;;;;12.00;9.13;;;7.00;92.90;;;;;;5052025;28;20493;-75
2021/01/07 09:59:27;;;;;;;9.87;8.87;;;7.00;93.10;;;;;;5052448;28;20410;-75
2021/01/07 10:02:00;;;;;;;9.67;8.67;;;7.10;93.30;;;;;;5057125;28;20474;-75
2021/01/07 10:04:26;;;;;;;10.73;9.40;;;7.00;93.20;;;;;;5063156;28;20480;-75
2021/01/07 10:06:52;;;;;;;11.07;9.30;;;6.90;93.40;;;;;;5057106;28;20758;-75
2021/01/07 10:09:18;;;;;;;13.30;9.27;;;6.80;93.60;;;;;;5061961;28;20768;-75
2021/01/07 10:11:48;;;;;;;10.50;8.00;;;6.90;93.80;;;;;;5066204;28;20456;-75
2021/01/07 10:14:14;;;;;;;12.37;10.70;;;6.80;93.80;;;;;;5071383;28;20411;-75
2021/01/07 10:16:40;;;;;;;13.00;10.43;;;6.80;94.00;;;;;;5067857;28;20398;-76
2021/01/07 10:19:05;;;;;;;16.17;12.30;;;6.80;94.30;;;;;;5065806;28;20626;-76
2021/01/07 10:21:38;;;;;;;19.43;15.63;;;6.80;94.60;;;;;;5063954;28;20622;-76
2021/01/07 10:24:05;;;;;;;17.27;13.73;;;6.90;94.90;;;;;;5065122;28;20256;-75
2021/01/07 10:26:32;;;;;;;18.13;14.87;;;6.90;94.80;;;;;;5067888;28;20413;-75
2021/01/07 10:28:58;;;;;;;18.13;13.40;;;6.90;94.70;;;;;;5076345;28;20376;-75
2021/01/07 10:31:24;;;;;;;20.87;17.83;;;7.00;94.80;;;;;;5070648;28;20523;-75
2021/01/07 10:33:50;;;;;;;17.10;13.37;;;7.00;95.00;;;;;;5061619;28;20488;-75
2021/01/07 10:36:17;;;;;;;15.93;14.23;;;7.00;94.90;;;;;;5065254;28;20219;-75
2021/01/07 10:38:48;;;;;;;14.13;11.70;;;6.90;94.70;;;;;;5065270;28;20436;-76
2021/01/07 10:41:15;;;;;;;13.60;10.60;;;6.90;94.70;;;;;;5059320;28;20423;-74
2021/01/07 10:43:41;;;;;;;11.20;9.20;;;6.80;94.50;;;;;;5053877;28;20392;-74
2021/01/07 10:46:07;;;;;;;11.33;10.20;;;6.80;94.90;;;;;;5061724;28;20383;-75
2021/01/07 10:48:40;;;;;;;11.30;9.35;;;6.80;94.70;;;;;;5075610;28;20419;-75
2021/01/07 10:51:06;;;;;;;14.47;12.10;;;6.70;94.90;;;;;;5075936;28;20154;-75
2021/01/07 10:53:53;;;;;;;11.10;9.43;;;6.70;95.10;;;;;;5075584;28;20477;-77
2021/01/07 10:56:29;;;;;;;12.37;10.00;;;6.70;95.40;;;;;;5076173;28;20426;-75
2021/01/07 10:59:21;;;;;;;13.83;10.43;;;6.70;95.50;;;;;;5055102;28;20772;-75
2021/01/07 11:02:18;;;;;;;13.17;10.80;;;6.70;95.50;;;;;;5060806;28;20410;-75
2021/01/07 11:05:17;;;;;;;11.80;10.60;;;6.70;95.60;;;;;;5097572;28;20422;-75
2021/01/07 11:07:58;;;;;;;12.40;11.20;;;6.80;95.70;;;;;;5044968;28;20463;-75
2021/01/07 11:10:25;;;;;;;11.57;9.80;;;6.80;95.70;;;;;;5067922;28;20381;-75
2021/01/07 11:12:55;;;;;;;14.70;13.20;;;6.80;95.70;;;;;;5063315;28;20535;-75
2021/01/07 11:15:24;;;;;;;12.43;10.10;;;6.80;95.50;;;;;;5061573;28;20401;-75
2021/01/07 11:17:58;;;;;;;14.00;12.70;;;6.80;95.70;;;;;;5066269;28;20394;-75
2021/01/07 11:20:27;;;;;;;11.07;9.70;;;6.90;95.70;;;;;;5064063;28;20416;-75
2021/01/07 11:22:54;;;;;;;11.97;10.77;;;6.90;95.60;;;;;;5062964;28;20417;-75
2021/01/07 11:25:20;;;;;;;13.37;12.07;;;6.80;95.50;;;;;;5063589;28;20402;-75
2021/01/07 11:27:47;;;;;;;11.47;10.27;;;6.80;95.30;;;;;;5064526;28;20495;-75
2021/01/07 11:30:14;;;;;;;12.40;10.23;;;6.80;95.30;;;;;;5064922;28;20385;-75
2021/01/07 11:32:40;;;;;;;11.00;9.53;;;6.90;95.30;;;;;;5052984;28;20375;-75
2021/01/07 11:35:09;;;;;;;10.40;8.93;;;6.80;95.50;;;;;;5064624;28;20489;-75
2021/01/07 11:37:38;;;;;;;9.93;8.83;;;6.80;95.60;;;;;;5066121;28;20425;-78
2021/01/07 11:40:07;;;;;;;9.60;8.70;;;6.80;95.70;;;;;;5061511;28;20384;-75
2021/01/07 11:42:35;;;;;;;9.43;8.40;;;6.80;95.50;;;;;;5063549;28;20406;-75
2021/01/07 11:45:13;;;;;;;10.40;8.63;;;6.80;95.40;;;;;;5065878;28;20744;-75
2021/01/07 11:47:51;;;;;;;11.90;10.80;;;6.70;95.00;;;;;;5064921;28;20372;-75
2021/01/07 11:50:18;;;;;;;10.87;9.40;;;6.80;95.10;;;;;;5065147;28;20371;-75
2021/01/07 11:52:45;;;;;;;12.13;10.53;;;6.80;95.00;;;;;;5061956;28;20390;-75
2021/01/07 11:55:12;;;;;;;12.33;11.03;;;6.80;95.00;;;;;;5062337;28;20412;-75
2021/01/07 11:57:40;;;;;;;8.57;7.43;;;6.70;95.20;;;;;;5058223;28;20737;-75
2021/01/07 12:00:11;;;;;;;10.53;9.23;;;6.70;95.20;;;;;;5064281;28;20462;-75
2021/01/07 12:02:41;;;;;;;10.50;9.00;;;6.70;95.40;;;;;;5062519;28;20962;-76
2021/01/07 12:05:11;;;;;;;10.60;9.37;;;6.70;95.40;;;;;;5064792;28;20412;-75
2021/01/07 12:07:59;;;;;;;12.87;11.57;;;6.70;95.30;;;;;;5064764;28;20896;-78
2021/01/07 12:10:27;;;;;;;8.80;7.73;;;6.70;95.70;;;;;;5060210;28;20422;-75
2021/01/07 12:13:25;;;;;;;9.33;8.53;;;6.60;95.20;;;;;;5062407;28;20494;-75
2021/01/07 12:15:52;;;;;;;10.60;9.50;;;6.60;95.50;;;;;;5062755;28;20878;-75
2021/01/07 12:18:19;;;;;;;8.07;7.37;;;6.50;95.60;;;;;;5062399;28;20413;-75
2021/01/07 12:20:46;;;;;;;9.50;8.73;;;6.50;95.70;;;;;;5063311;28;20396;-75
2021/01/07 12:23:14;;;;;;;6.97;6.37;;;6.50;95.90;;;;;;5056989;28;20881;-75
2021/01/07 12:25:41;;;;;;;7.20;6.50;;;6.50;96.10;;;;;;5059904;28;20425;-75
2021/01/07 12:28:17;;;;;;;9.20;8.37;;;6.50;96.00;;;;;;5054523;28;20401;-74
2021/01/07 12:30:46;;;;;;;8.40;7.60;;;6.50;96.20;;;;;;5053829;28;20427;-73
2021/01/07 12:33:15;;;;;;;12.13;11.13;;;6.50;96.20;;;;;;5053934;28;20506;-73
2021/01/07 12:36:14;;;;;;;10.10;9.20;;;6.50;96.00;;;;;;5053224;28;20505;-75
2021/01/07 12:39:29;;;;;;;10.18;9.05;;;6.50;95.90;;;;;;5043401;28;20194;-80
2021/01/07 12:41:56;;;;;;;11.03;9.40;;;6.60;96.00;;;;;;5025993;28;20198;-73
2021/01/07 12:44:24;;;;;;;13.30;10.90;;;6.60;96.00;;;;;;5053824;28;20388;-74
2021/01/07 12:46:55;;;;;;;15.63;11.02;;;6.50;96.10;;;;;;5047353;28;20417;-74
2021/01/07 12:49:22;;;;;;;15.37;12.10;;;6.60;96.20;;;;;;5034556;28;20236;-75